Latest Weather Observations for Moss Vale

IDN60801

Issued at 5:03 pm EDT Sunday 29 March 2015 (issued every 30 minutes, with the page automatically refreshed every 10 minutes)

About weather observations | Map of weather stations | Latest weather observations for NSW | Other Formats
Station Details ID: 068239 Name: MOSS VALE AWS Lat: -34.53 Lon: 150.42 Height: 678.4 m
Data from the previous 72 hours. | See also: Recent months at Moss Vale
Date/Time
EDT
Temp
°C
App
Temp
°C
Dew
Point
Rel
Hum
%
Delta-T
°C
Wind Press
QNH
hPa
Press
MSL
hPa
Rain
since 9 am
mm
Dir
 
Spd
km/h
Gust
km/h
Spd
kts
Gust
kts
29/05:00pm 19.7 17.6 6.8 43 6.7 ESE 7 11 4 6 1022.3 1020.2 0.0
29/04:30pm 20.1 17.3 7.1 43 6.8 SSE 11 15 6 8 1022.6 1020.4 0.0
29/04:00pm 20.1 17.0 7.1 43 6.8 S 13 19 7 10 1022.7 1020.5 0.0
29/03:30pm 20.4 16.6 7.4 43 6.9 WSW 17 24 9 13 1022.4 1020.3 0.0
29/03:00pm 20.7 17.8 4.7 35 8.0 WNW 9 13 5 7 1022.6 1020.4 0.0
29/02:30pm 21.0 17.5 3.7 32 8.6 WNW 11 17 6 9 1022.8 1020.6 0.0
29/02:00pm 20.6 17.0 5.0 36 7.9 WNW 13 19 7 10 1023.0 1020.8 0.0
29/01:30pm 21.3 18.7 7.9 42 7.2 WNW 11 19 6 10 1023.3 1021.1 0.0
29/01:00pm 20.7 18.1 7.7 43 6.9 NW 11 19 6 10 1023.6 1021.5 0.0
29/12:30pm 19.7 15.7 5.0 38 7.4 W 15 26 8 14 1023.9 1021.8 0.0
29/12:00pm 19.6 15.4 3.7 35 7.8 NW 15 26 8 14 1024.2 1022.0 0.0
29/11:30am 18.6 15.7 8.3 51 5.5 NW 13 24 7 13 1024.4 1022.2 0.0
29/11:00am 18.2 16.6 11.5 65 3.8 NW 11 15 6 8 1024.5 1022.3 0.0
29/10:30am 17.2 14.1 11.5 69 3.2 N 19 24 10 13 1024.6 1022.4 0.0
29/10:00am 15.7 11.6 11.3 75 2.4 N 24 32 13 17 1024.6 1022.4 0.0
29/09:30am 15.0 12.2 11.4 79 2.0 N 17 24 9 13 1024.5 1022.3 0.0
29/09:00am 13.9 11.8 11.2 84 1.5 N 13 20 7 11 1024.2 1022.0 0.0
29/08:30am 12.7 12.4 11.6 93 0.6 N 4 9 2 5 1023.9 1021.8 0.0
29/08:00am 11.4 11.3 10.8 96 0.3 NNE 2 7 1 4 1023.6 1021.5 0.0
29/07:30am 10.6 10.2 9.8 95 0.4 NNE 2 7 1 4 1023.7 1021.6 0.0
29/07:00am 10.6 9.8 9.7 94 0.5 N 4 7 2 4 1023.5 1021.4 0.0
29/06:30am 10.9 9.2 10.0 94 0.5 NNE 9 17 5 9 1023.1 1020.9 0.0
29/05:30am 10.4 9.6 9.5 94 0.5 NNW 4 7 2 4 1022.7 1020.5 0.0
29/05:00am 10.5 8.7 9.6 94 0.5 NNE 9 17 5 9 1022.7 1020.5 0.0
29/04:30am 10.7 9.6 9.8 94 0.5 NNE 6 9 3 5 1022.7 1020.5 0.0
29/04:08am 10.6 8.9 9.8 95 0.4 N 9 15 5 8 1022.8 1020.6 0.0
29/04:00am 10.4 9.0 9.6 95 0.4 NNE 7 9 4 5 1022.8 1020.6 0.0
29/03:35am 9.8 7.9 9.0 95 0.4 NNE 9 15 5 8 1023.0 1020.8 0.0
29/03:30am 10.1 8.3 9.5 96 0.3 NNE 9 15 5 8 1023.0 1020.8 0.0
29/03:00am 9.5 6.7 8.7 95 0.4 NE 13 15 7 8 1023.1 1020.9 0.0
29/02:30am 9.4 7.4 8.8 96 0.3 NNE 9 11 5 6 1023.4 1021.3 0.0
29/02:00am 9.1 7.1 8.5 96 0.3 NNE 9 11 5 6 1023.6 1021.5 0.0
29/01:30am 9.2 7.7 8.6 96 0.3 NE 6 9 3 5 1024.0 1021.9 0.0
29/01:25am 8.9 7.2 8.3 96 0.3 NE 7 11 4 6 1024.0 1021.9 0.0
29/01:00am 8.2 6.5 7.4 95 0.4 NE 6 7 3 4 1024.0 1021.9 0.0
29/12:37am 9.1 7.4 8.3 95 0.4 NNE 7 7 4 4 1024.3 1022.1 0.0
29/12:36am 9.3 7.7 8.7 96 0.3 NNE 7 7 4 4 1024.3 1022.1 0.0
29/12:30am 9.2 7.5 8.4 95 0.4 NE 7 7 4 4 1024.2 1022.0 0.0
29/12:03am 9.5 7.8 8.4 93 0.6 NNE 7 7 4 4 1024.4 1022.2 0.0
29/12:00am 9.8 8.2 8.9 94 0.5 NNE 7 7 4 4 1024.4 1022.2 0.0
 
Date/Time
EDT
Temp
°C
App
Temp
°C
Dew
Point
Rel
Hum
%
Delta-T
°C
Wind Press
QNH
hPa
Press
MSL
hPa
Rain
since 9 am
mm
Dir
 
Spd
km/h
Gust
km/h
Spd
kts
Gust
kts
28/11:30pm 9.9 8.3 8.7 92 0.6 NNE 7 9 4 5 1024.6 1022.4 0.0
28/11:00pm 10.4 8.9 9.2 92 0.6 N 7 9 4 5 1024.8 1022.7 0.0
28/10:30pm 10.0 8.5 8.6 91 0.7 NNE 6 9 3 5 1024.9 1022.8 0.0
28/10:00pm 9.9 9.6 8.8 93 0.6 CALM 0 0 0 0 1025.2 1023.1 0.0
28/09:30pm 10.3 9.3 8.9 91 0.7 NE 4 6 2 3 1025.0 1022.9 0.0
28/09:00pm 10.3 8.9 8.7 90 0.8 E 6 7 3 4 1024.6 1022.4 0.0
28/08:30pm 10.8 8.5 8.9 88 1.0 ENE 11 13 6 7 1024.4 1022.2 0.0
28/08:00pm 11.0 8.7 8.9 87 1.1 ENE 11 13 6 7 1023.9 1021.8 0.0
28/07:30pm 11.6 9.3 9.0 84 1.3 E 11 15 6 8 1023.9 1021.8 0.0
28/07:00pm 12.4 9.4 9.2 81 1.7 ENE 15 17 8 9 1023.5 1021.4 0.0
28/06:30pm 13.6 10.6 9.3 75 2.3 E 15 19 8 10 1023.2 1021.0 0.0
28/05:30pm 15.5 11.6 9.4 67 3.3 E 20 28 11 15 1022.8 1020.6 0.0
28/05:00pm 17.0 13.7 9.7 62 3.9 E 17 20 9 11 1022.6 1020.4 0.0
28/04:30pm 17.2 13.3 9.6 61 4.1 ENE 20 24 11 13 1022.4 1020.3 0.0
28/04:00pm 18.4 16.2 9.5 56 4.8 ENE 11 17 6 9 1022.6 1020.4 0.0
28/03:30pm 18.8 16.2 6.3 44 6.4 NE 9 20 5 11 1022.6 1020.4 0.0
28/03:00pm 18.3 14.9 5.8 44 6.3 NNE 13 19 7 10 1022.9 1020.7 0.0
28/02:30pm 18.8 16.3 6.6 45 6.3 NNE 9 13 5 7 1023.0 1020.8 0.0
28/02:00pm 17.4 14.6 5.0 44 6.1 NE 9 15 5 8 1023.3 1021.1 0.0
28/01:30pm 18.0 15.3 7.4 50 5.5 NNE 11 17 6 9 1023.6 1021.5 0.0
28/01:00pm 16.8 14.5 5.7 48 5.5 ESE 7 15 4 8 1023.8 1021.7 0.0
28/12:30pm 16.7 13.0 6.2 50 5.3 NNW 15 24 8 13 1024.5 1022.3 0.0
28/12:00pm 16.3 14.0 5.6 49 5.3 WNW 7 11 4 6 1024.6 1022.4 0.0
28/11:30am 15.8 13.6 6.0 52 4.9 S 7 13 4 7 1024.6 1022.4 0.0
28/11:00am 14.9 12.6 5.7 54 4.5 SSE 7 15 4 8 1024.7 1022.6 0.0
28/10:30am 14.7 12.1 6.3 57 4.2 SSE 9 13 5 7 1024.6 1022.4 0.0
28/10:00am 13.2 10.6 5.9 61 3.6 SW 9 13 5 7 1024.6 1022.4 0.0
28/09:30am 11.7 8.7 5.8 67 2.9 WSW 11 15 6 8 1024.6 1022.4 0.0
28/09:00am 9.9 7.3 5.9 76 1.9 WSW 9 15 5 8 1024.5 1022.3 0.0
28/08:30am 7.8 6.7 4.9 82 1.3 CALM 0 0 0 0 1024.2 1022.0 0.0
28/08:00am 6.6 5.5 5.2 91 0.6 CALM 0 0 0 0 1023.9 1021.8 0.0
28/07:30am 4.3 2.9 3.3 93 0.4 CALM 0 0 0 0 1023.4 1021.3 0.0
28/07:00am 4.5 3.0 3.2 91 0.6 CALM 0 0 0 0 1023.1 1020.9 0.0
28/06:30am 4.7 3.2 3.0 89 0.7 CALM 0 0 0 0 1022.7 1020.5 0.0
28/06:00am 4.7 3.2 2.9 88 0.8 CALM 0 0 0 0 1022.4 1020.3 0.0
28/05:30am 4.9 3.4 2.9 87 0.9 CALM 0 0 0 0 1022.2 1020.1 0.0
28/05:00am 6.0 3.4 3.2 82 1.2 SW 6 7 3 4 1021.8 1019.6 0.0
28/04:30am 6.8 5.4 3.6 80 1.4 CALM 0 0 0 0 1021.8 1019.6 0.0
28/04:00am 6.1 2.9 2.9 80 1.4 SW 9 9 5 5 1021.7 1019.5 0.0
28/03:30am 7.4 4.3 3.5 76 1.7 W 9 11 5 6 1021.8 1019.6 0.0
28/03:00am 7.4 4.8 3.3 75 1.8 NW 6 7 3 4 1022.0 1019.8 0.0
28/02:30am 8.2 4.3 3.5 72 2.1 W 13 15 7 8 1022.3 1020.2 0.0
28/02:00am 9.0 6.3 3.8 70 2.3 W 7 9 4 5 1022.3 1020.2 0.0
28/01:30am 8.5 6.0 3.6 71 2.2 W 6 7 3 4 1022.4 1020.3 0.0
28/01:00am 9.1 6.0 3.7 69 2.4 WNW 9 13 5 7 1022.4 1020.3 0.0
28/12:30am 8.3 5.7 3.2 70 2.3 N 6 9 3 5 1022.4 1020.3 0.0
28/12:00am 9.9 6.5 3.9 66 2.7 WSW 11 17 6 9 1022.3 1020.2 0.0
 
Date/Time
EDT
Temp
°C
App
Temp
°C
Dew
Point
Rel
Hum
%
Delta-T
°C
Wind Press
QNH
hPa
Press
MSL
hPa
Rain
since 9 am
mm
Dir
 
Spd
km/h
Gust
km/h
Spd
kts
Gust
kts
27/11:30pm 10.0 5.8 3.7 65 2.9 WSW 15 19 8 10 1022.4 1020.3 0.0
27/11:00pm 10.5 6.7 4.0 64 3.0 W 13 19 7 10 1022.3 1020.2 0.0
27/10:30pm 11.0 6.8 3.8 61 3.3 W 15 20 8 11 1022.1 1020.0 0.0
27/10:00pm 11.7 7.5 3.7 58 3.7 WSW 15 20 8 11 1021.8 1019.6 0.0
27/09:30pm 12.1 7.5 3.9 57 3.8 W 17 24 9 13 1021.6 1019.4 0.0
27/09:00pm 12.0 7.5 4.0 58 3.7 W 17 28 9 15 1021.3 1019.1 0.0
27/08:30pm 12.6 7.6 3.5 54 4.2 W 19 24 10 13 1021.1 1018.9 0.0
27/08:00pm 13.2 8.0 3.3 51 4.6 WSW 20 32 11 17 1020.5 1018.3 0.0
27/07:30pm 14.1 7.7 3.0 47 5.2 W 26 35 14 19 1020.3 1018.1 0.0
27/07:00pm 14.5 8.1 3.0 46 5.3 WSW 26 39 14 21 1019.7 1017.5 0.0
27/06:30pm 15.4 9.4 3.2 44 5.8 WSW 24 35 13 19 1019.6 1017.4 0.0
27/06:00pm 16.2 8.6 2.6 40 6.4 W 32 44 17 24 1019.2 1017.0 0.0
27/05:34pm 16.7 9.0 2.3 38 6.7 W 32 54 17 29 1018.6 1016.4 0.0
27/05:30pm 16.8 9.2 2.8 39 6.6 WSW 32 44 17 24 1018.8 1016.6 0.0
27/05:10pm 17.5 10.2 4.5 42 6.4 WSW 32 50 17 27 1018.6 1016.4 0.0
27/05:00pm 17.3 9.1 2.9 38 6.8 W 35 50 19 27 1018.4 1016.2 0.0
27/04:44pm 17.6 10.0 3.9 40 6.7 W 33 52 18 28 1018.5 1016.3 0.0
27/04:30pm 17.5 9.0 3.0 38 6.9 W 37 52 20 28 1018.5 1016.3 0.0
27/04:18pm 17.4 9.3 3.3 39 6.8 WSW 35 54 19 29 1018.6 1016.4 0.0
27/04:00pm 17.5 9.3 2.7 37 7.0 WSW 35 52 19 28 1018.6 1016.4 0.0
27/03:30pm 17.8 10.9 4.4 41 6.6 WSW 30 54 16 29 1018.9 1016.7 0.0
27/03:00pm 17.2 9.3 2.4 37 6.9 WSW 33 52 18 28 1018.9 1016.7 0.0
27/02:32pm 17.7 9.8 4.6 42 6.5 W 35 54 19 29 1019.0 1016.8 0.0
27/02:30pm 17.7 9.5 5.0 43 6.3 W 37 54 20 29 1019.1 1016.9 0.0
27/02:01pm 17.4 9.9 3.7 40 6.6 WSW 32 54 17 29 1019.3 1017.1 0.0
27/02:00pm 17.6 10.6 4.2 41 6.5 WSW 30 43 16 23 1019.6 1017.4 0.0
27/01:30pm 16.8 8.7 3.1 40 6.5 WSW 35 54 19 29 1019.7 1017.5 0.0
27/01:17pm 16.7 7.8 3.0 40 6.5 WSW 39 59 21 32 1019.7 1017.5 0.0
27/01:00pm 16.6 8.5 3.3 41 6.3 WSW 35 52 19 28 1019.9 1017.7 0.0
27/12:42pm 15.9 6.7 1.2 37 6.7 WSW 39 59 21 32 1019.9 1017.7 0.0
27/12:30pm 15.6 5.9 2.7 42 6.0 WSW 43 57 23 31 1020.2 1018.0 0.0
27/12:00pm 15.6 8.1 4.3 47 5.4 WSW 33 56 18 30 1020.4 1018.2 0.0
27/11:45am 14.9 6.4 3.4 46 5.4 WSW 37 56 20 30 1020.5 1018.3 0.0
27/11:30am 14.9 6.3 4.9 51 4.9 W 39 48 21 26 1020.7 1018.6 0.0
27/11:11am 14.3 6.5 5.1 54 4.5 WSW 35 54 19 29 1020.8 1018.7 0.0
27/11:00am 13.7 4.9 3.8 51 4.7 WSW 39 56 21 30 1020.6 1018.4 0.0
27/10:30am 12.9 3.7 3.6 53 4.3 WSW 41 59 22 32 1020.4 1018.2 0.0
27/10:00am 12.4 4.5 4.6 59 3.7 WSW 35 56 19 30 1020.7 1018.6 0.0
27/09:30am 10.9 2.4 3.0 58 3.6 WSW 37 59 20 32 1020.5 1018.3 0.0
27/09:00am 10.1 1.6 2.9 61 3.2 WSW 37 57 20 31 1020.6 1018.4 0.0
27/08:51am 9.7 1.4 2.3 60 3.3 WSW 35 57 19 31 1020.5 1018.3 0.0
27/08:30am 9.2 1.4 2.8 64 2.8 WSW 33 46 18 25 1020.6 1018.4 0.0
27/08:10am 8.6 0.7 2.4 65 2.7 WSW 33 52 18 28 1020.5 1018.3 0.0
27/08:00am 8.3 0.0 1.9 64 2.8 W 35 52 19 28 1020.3 1018.1 0.0
27/07:30am 7.6 -0.2 1.5 65 2.6 W 32 46 17 25 1020.1 1017.9 0.0
27/07:00am 7.6 -0.5 1.0 63 2.8 W 33 43 18 23 1020.2 1018.0 0.0
27/06:30am 7.5 0.7 0.7 62 2.8 W 26 37 14 20 1019.9 1017.7 0.0
27/06:00am 7.4 0.9 0.6 62 2.8 W 24 35 13 19 1019.9 1017.7 0.0
27/05:30am 7.8 1.3 0.3 59 3.1 W 24 33 13 18 1019.9 1017.7 0.0
27/05:00am 8.1 2.4 0.3 58 3.2 W 20 30 11 16 1020.0 1017.8 0.0
27/04:30am 7.2 3.1 0.0 60 2.9 WSW 11 15 6 8 1020.2 1018.0 0.0
27/04:00am 7.0 3.2 -0.4 59 3.0 WSW 9 13 5 7 1020.3 1018.1 0.0
27/03:30am 7.5 2.9 -0.7 56 3.3 W 13 15 7 8 1020.6 1018.4 0.0
27/03:00am 8.2 3.3 -0.5 54 3.5 W 15 22 8 12 1020.7 1018.6 0.0
27/02:30am 8.5 3.9 -1.0 51 3.8 W 13 19 7 10 1021.1 1018.9 0.0
27/02:00am 8.2 3.6 -1.1 52 3.7 WSW 13 19 7 10 1021.1 1018.9 0.0
27/01:30am 8.6 4.0 -0.9 51 3.8 WSW 13 19 7 10 1021.4 1019.2 0.0
27/01:00am 9.0 4.0 -1.1 49 4.1 WSW 15 20 8 11 1021.4 1019.2 0.0
27/12:30am 9.0 4.0 -1.4 48 4.2 WSW 15 20 8 11 1021.3 1019.1 0.0
27/12:00am 9.3 3.9 -1.1 48 4.2 WSW 17 24 9 13 1021.2 1019.0 0.0
 
Date/Time
EDT
Temp
°C
App
Temp
°C
Dew
Point
Rel
Hum
%
Delta-T
°C
Wind Press
QNH
hPa
Press
MSL
hPa
Rain
since 9 am
mm
Dir
 
Spd
km/h
Gust
km/h
Spd
kts
Gust
kts
26/11:30pm 9.5 3.6 -0.9 48 4.2 W 20 28 11 15 1021.1 1018.9 0.0
26/11:00pm 10.0 4.1 -0.8 47 4.4 WSW 20 24 11 13 1021.1 1018.9 0.0
26/10:30pm 10.6 4.7 -1.1 44 4.8 WSW 20 30 11 16 1021.2 1019.0 0.0
26/10:00pm 10.8 4.8 -1.3 43 4.9 W 20 28 11 15 1021.1 1018.9 0.0
26/09:30pm 11.6 5.6 -1.2 41 5.3 W 20 32 11 17 1020.9 1018.8 0.0
26/09:00pm 12.3 5.6 -1.2 39 5.6 WSW 24 35 13 19 1020.7 1018.6 0.0
26/08:30pm 12.9 5.6 0.0 41 5.6 W 28 39 15 21 1020.2 1018.0 0.0
26/08:00pm 13.6 7.0 2.2 46 5.2 W 26 35 14 19 1019.7 1017.5 0.0
26/07:30pm 14.2 7.9 3.7 49 5.0 W 26 39 14 21 1019.1 1016.9 0.0
26/07:00pm 15.3 7.9 3.8 46 5.5 W 32 43 17 23 1018.6 1016.4 0.0
26/06:48pm 15.8 9.1 3.6 44 5.8 W 28 48 15 26 1018.6 1016.4 0.0
26/06:30pm 16.5 9.4 3.6 42 6.2 W 30 44 16 24 1018.3 1016.1 0.0
26/06:06pm 17.3 9.4 2.5 37 7.0 W 33 56 18 30 1017.7 1015.5 0.0
26/06:00pm 17.7 10.2 3.6 39 6.8 W 32 44 17 24 1017.7 1015.5 0.0
26/05:43pm 18.1 10.6 3.2 37 7.2 W 32 50 17 27 1017.5 1015.3 0.0
26/05:30pm 18.4 10.6 2.7 35 7.5 W 33 50 18 27 1017.3 1015.1 0.0

Other Formats:

Comma delimited format used in spreadsheet applications
http://www.bom.gov.au/fwo/IDN60801/IDN60801.94746.axf

JavaScript Object Notation format (JSON) in row-major order
http://www.bom.gov.au/fwo/IDN60801/IDN60801.94746.json